createdAt,value
2018-07-09T00:00:08.735Z,1020.30
2018-07-09T00:01:08.708Z,1020.33
2018-07-09T00:02:08.697Z,1020.36
2018-07-09T00:03:08.685Z,1020.38
2018-07-09T00:04:08.694Z,1020.40
2018-07-09T00:05:08.654Z,1020.39
2018-07-09T00:06:08.663Z,1020.41
2018-07-09T00:07:08.635Z,1020.41
2018-07-09T00:08:08.629Z,1020.38
2018-07-09T00:09:08.609Z,1020.37
2018-07-09T00:10:08.626Z,1020.37
2018-07-09T00:11:08.603Z,1020.34
2018-07-09T00:12:08.580Z,1020.37
2018-07-09T00:13:08.556Z,1020.40
2018-07-09T00:14:08.549Z,1020.39
2018-07-09T00:15:08.534Z,1020.40
2018-07-09T00:16:08.544Z,1020.43
2018-07-09T00:17:08.511Z,1020.42
2018-07-09T00:18:08.502Z,1020.40
2018-07-09T00:19:08.486Z,1020.40
2018-07-09T00:20:08.499Z,1020.41
2018-07-09T00:21:08.463Z,1020.40
2018-07-09T00:22:08.448Z,1020.42
2018-07-09T00:23:08.440Z,1020.43
2018-07-09T00:24:08.427Z,1020.42
2018-07-09T00:25:08.414Z,1020.46
2018-07-09T00:26:08.420Z,1020.47
2018-07-09T00:27:08.392Z,1020.51
2018-07-09T00:28:08.375Z,1020.48
2018-07-09T00:29:08.364Z,1020.51
2018-07-09T00:30:08.353Z,1020.50
2018-07-09T00:31:08.373Z,1020.50
2018-07-09T00:32:08.328Z,1020.49
2018-07-09T00:33:08.314Z,1020.50
2018-07-09T00:34:08.304Z,1020.47
2018-07-09T00:35:08.294Z,1020.49
2018-07-09T00:36:08.278Z,1020.48
2018-07-09T00:37:08.282Z,1020.49
2018-07-09T00:38:08.253Z,1020.50
2018-07-09T00:39:08.240Z,1020.50
2018-07-09T00:40:08.231Z,1020.48
2018-07-09T00:41:08.225Z,1020.49
2018-07-09T00:42:08.222Z,1020.45
2018-07-09T00:43:08.200Z,1020.44
2018-07-09T00:44:08.177Z,1020.44
2018-07-09T00:45:08.162Z,1020.40
2018-07-09T00:46:08.156Z,1020.45
2018-07-09T00:47:08.139Z,1020.49
2018-07-09T00:48:08.157Z,1020.50
2018-07-09T00:49:08.116Z,1020.49
2018-07-09T00:50:08.098Z,1020.47
2018-07-09T00:51:08.093Z,1020.47
2018-07-09T00:52:08.086Z,1020.48
2018-07-09T00:53:08.071Z,1020.51
2018-07-09T00:54:08.069Z,1020.52
2018-07-09T00:55:08.036Z,1020.47
2018-07-09T00:56:08.029Z,1020.48
2018-07-09T00:57:08.017Z,1020.46
2018-07-09T00:58:08.031Z,1020.48
2018-07-09T00:59:07.999Z,1020.50
2018-07-09T01:00:07.976Z,1020.49
2018-07-09T01:01:07.961Z,1020.49
2018-07-09T01:02:07.949Z,1020.46
2018-07-09T01:03:07.938Z,1020.49
2018-07-09T01:04:07.941Z,1020.46
2018-07-09T01:05:07.912Z,1020.55
2018-07-09T01:06:07.900Z,1020.54
2018-07-09T01:07:07.883Z,1020.52
2018-07-09T01:08:07.873Z,1020.50
2018-07-09T01:09:07.874Z,1020.54
2018-07-09T01:10:07.849Z,1020.50
2018-07-09T01:11:07.864Z,1020.49
2018-07-09T01:12:07.837Z,1020.51
2018-07-09T01:13:07.813Z,1020.50
2018-07-09T01:14:07.800Z,1020.50
2018-07-09T01:15:07.804Z,1020.47
2018-07-09T01:16:07.779Z,1020.44
2018-07-09T01:17:07.761Z,1020.41
2018-07-09T01:18:07.753Z,1020.42
2018-07-09T01:19:07.749Z,1020.41
2018-07-09T01:20:07.716Z,1020.39
2018-07-09T01:21:07.708Z,1020.42
2018-07-09T01:22:07.705Z,1020.44
2018-07-09T01:23:07.678Z,1020.46
2018-07-09T01:24:07.685Z,1020.46
2018-07-09T01:25:07.654Z,1020.41
2018-07-09T01:26:07.644Z,1020.43
2018-07-09T01:27:07.628Z,1020.44
2018-07-09T01:28:07.619Z,1020.40
2018-07-09T01:29:07.631Z,1020.43
2018-07-09T01:30:07.590Z,1020.39
2018-07-09T01:31:07.581Z,1020.43
2018-07-09T01:32:07.562Z,1020.44
2018-07-09T01:33:07.555Z,1020.42
2018-07-09T01:34:07.544Z,1020.41
2018-07-09T01:35:07.540Z,1020.41
2018-07-09T01:36:07.514Z,1020.42
2018-07-09T01:37:07.503Z,1020.41
2018-07-09T01:38:07.486Z,1020.41
2018-07-09T01:39:07.482Z,1020.43
2018-07-09T01:40:07.493Z,1020.40
2018-07-09T01:41:07.448Z,1020.43
2018-07-09T01:42:07.434Z,1020.39
2018-07-09T01:43:07.420Z,1020.41
2018-07-09T01:44:07.410Z,1020.39
2018-07-09T01:45:07.391Z,1020.42
2018-07-09T01:46:07.394Z,1020.45
2018-07-09T01:47:07.370Z,1020.44
2018-07-09T01:48:07.351Z,1020.42
2018-07-09T01:49:07.352Z,1020.39
2018-07-09T01:50:07.333Z,1020.39
2018-07-09T01:51:07.333Z,1020.37
2018-07-09T01:52:07.306Z,1020.38
2018-07-09T01:53:07.293Z,1020.35
2018-07-09T01:54:07.284Z,1020.34
2018-07-09T01:55:07.270Z,1020.31
2018-07-09T01:56:07.265Z,1020.31
2018-07-09T01:57:07.238Z,1020.29
2018-07-09T01:58:28.240Z,1020.30
2018-07-09T01:59:07.208Z,1020.33
2018-07-09T02:00:07.219Z,1020.29
2018-07-09T02:01:07.201Z,1020.30
2018-07-09T02:02:07.169Z,1020.32
2018-07-09T02:03:07.163Z,1020.31
2018-07-09T02:04:07.146Z,1020.26
2018-07-09T02:05:07.153Z,1020.29
2018-07-09T02:06:07.149Z,1020.33
2018-07-09T02:07:07.109Z,1020.33
2018-07-09T02:08:07.089Z,1020.33
2018-07-09T02:09:07.081Z,1020.30
2018-07-09T02:10:07.070Z,1020.37
2018-07-09T02:11:07.054Z,1020.31
2018-07-09T02:12:07.062Z,1020.31
2018-07-09T02:13:07.030Z,1020.29
2018-07-09T02:14:07.016Z,1020.32
2018-07-09T02:15:07.004Z,1020.30
2018-07-09T02:16:06.995Z,1020.27
2018-07-09T02:17:07.004Z,1020.28
2018-07-09T02:18:06.964Z,1020.28
2018-07-09T02:19:06.950Z,1020.31
2018-07-09T02:20:06.936Z,1020.29
2018-07-09T02:21:06.927Z,1020.33
2018-07-09T02:22:06.930Z,1020.33
2018-07-09T02:23:06.917Z,1020.30
2018-07-09T02:24:06.883Z,1020.30
2018-07-09T02:25:06.869Z,1020.32
2018-07-09T02:26:06.862Z,1020.31
2018-07-09T02:27:06.847Z,1020.28
2018-07-09T02:28:06.844Z,1020.31
2018-07-09T02:29:06.820Z,1020.29
2018-07-09T02:30:06.809Z,1020.29
2018-07-09T02:31:07.765Z,1020.27
2018-07-09T02:32:06.773Z,1020.25
2018-07-09T02:33:06.789Z,1020.23
2018-07-09T02:34:06.749Z,1020.25
2018-07-09T02:35:06.748Z,1020.25
2018-07-09T02:36:06.726Z,1020.24
2018-07-09T02:37:06.714Z,1020.24
2018-07-09T02:38:06.714Z,1020.21
2018-07-09T02:39:06.701Z,1020.24
2018-07-09T02:40:06.702Z,1020.24
2018-07-09T02:41:06.664Z,1020.28
2018-07-09T02:42:06.645Z,1020.32
2018-07-09T02:43:06.630Z,1020.28
2018-07-09T02:44:06.638Z,1020.29
2018-07-09T02:45:06.614Z,1020.30
2018-07-09T02:46:06.590Z,1020.29
2018-07-09T02:47:06.581Z,1020.31
2018-07-09T02:48:06.562Z,1020.33
2018-07-09T02:49:06.599Z,1020.36
2018-07-09T02:50:06.569Z,1020.35
2018-07-09T02:51:06.531Z,1020.30
2018-07-09T02:52:06.513Z,1020.29
2018-07-09T02:53:06.493Z,1020.33
2018-07-09T02:54:06.483Z,1020.33
2018-07-09T02:55:06.471Z,1020.34
2018-07-09T02:56:06.468Z,1020.36
2018-07-09T02:57:06.458Z,1020.37
2018-07-09T02:58:06.428Z,1020.31
2018-07-09T02:59:06.416Z,1020.35
2018-07-09T03:00:06.407Z,1020.31
2018-07-09T03:01:06.422Z,1020.34
2018-07-09T03:02:06.378Z,1020.39
2018-07-09T03:03:06.364Z,1020.39
2018-07-09T03:04:06.345Z,1020.38
2018-07-09T03:05:06.356Z,1020.35
2018-07-09T03:06:06.345Z,1020.36
2018-07-09T03:07:06.307Z,1020.39
2018-07-09T03:08:06.295Z,1020.45
2018-07-09T03:09:06.281Z,1020.40
2018-07-09T03:10:06.289Z,1020.38
2018-07-09T03:11:06.268Z,1020.38
2018-07-09T03:12:06.239Z,1020.39
2018-07-09T03:13:06.233Z,1020.40
2018-07-09T03:14:06.214Z,1020.37
2018-07-09T03:15:06.212Z,1020.36
2018-07-09T03:16:06.183Z,1020.37
2018-07-09T03:17:06.191Z,1020.39
2018-07-09T03:18:06.163Z,1020.44
2018-07-09T03:19:06.168Z,1020.45
2018-07-09T03:20:06.147Z,1020.45
2018-07-09T03:21:06.131Z,1020.42
2018-07-09T03:22:06.120Z,1020.46
2018-07-09T03:23:06.099Z,1020.44
2018-07-09T03:24:06.077Z,1020.43
2018-07-09T03:25:06.064Z,1020.40
2018-07-09T03:26:06.065Z,1020.42
2018-07-09T03:27:06.031Z,1020.42
2018-07-09T03:28:06.022Z,1020.44
2018-07-09T03:29:06.008Z,1020.41
2018-07-09T03:30:05.990Z,1020.42
2018-07-09T03:31:05.997Z,1020.43
2018-07-09T03:32:05.988Z,1020.38
2018-07-09T03:33:05.954Z,1020.37
2018-07-09T03:34:05.938Z,1020.39
2018-07-09T03:35:05.925Z,1020.35
2018-07-09T03:36:05.916Z,1020.38
2018-07-09T03:37:05.913Z,1020.42
2018-07-09T03:38:05.902Z,1020.41
2018-07-09T03:39:05.872Z,1020.41
2018-07-09T03:40:05.860Z,1020.45
2018-07-09T03:41:05.842Z,1020.46
2018-07-09T03:42:05.848Z,1020.49
2018-07-09T03:43:05.809Z,1020.52
2018-07-09T03:44:05.798Z,1020.51
2018-07-09T03:45:05.800Z,1020.49
2018-07-09T03:46:05.771Z,1020.46
2018-07-09T03:47:05.758Z,1020.47
2018-07-09T03:48:05.758Z,1020.47
2018-07-09T03:49:05.742Z,1020.48
2018-07-09T03:50:05.716Z,1020.50
2018-07-09T03:51:05.703Z,1020.51
2018-07-09T03:52:05.689Z,1020.52
2018-07-09T03:53:05.673Z,1020.55
2018-07-09T03:54:05.679Z,1020.59
2018-07-09T03:55:05.649Z,1020.60
2018-07-09T03:56:05.637Z,1020.63
2018-07-09T03:57:05.618Z,1020.59
2018-07-09T03:58:05.608Z,1020.60
2018-07-09T03:59:05.619Z,1020.64
2018-07-09T04:00:05.576Z,1020.68
2018-07-09T04:01:05.558Z,1020.65
2018-07-09T04:02:05.552Z,1020.63
2018-07-09T04:03:05.539Z,1020.67
2018-07-09T04:04:05.526Z,1020.72
2018-07-09T04:05:05.523Z,1020.72
2018-07-09T04:06:05.495Z,1020.71
2018-07-09T04:07:05.478Z,1020.70
2018-07-09T04:08:05.462Z,1020.70
2018-07-09T04:09:05.474Z,1020.69
2018-07-09T04:10:05.451Z,1020.69
2018-07-09T04:11:05.416Z,1020.70
2018-07-09T04:12:05.410Z,1020.71
2018-07-09T04:13:05.398Z,1020.69
2018-07-09T04:14:05.384Z,1020.69
2018-07-09T04:15:05.382Z,1020.68
2018-07-09T04:16:05.352Z,1020.72
2018-07-09T04:17:05.332Z,1020.73
2018-07-09T04:18:05.327Z,1020.73
2018-07-09T04:19:05.307Z,1020.71
2018-07-09T04:20:05.328Z,1020.69
2018-07-09T04:21:05.311Z,1020.71
2018-07-09T04:22:05.270Z,1020.72
2018-07-09T04:23:05.253Z,1020.73
2018-07-09T04:24:05.246Z,1020.75
2018-07-09T04:25:05.226Z,1020.78
2018-07-09T04:26:05.238Z,1020.85
2018-07-09T04:27:05.201Z,1020.81
2018-07-09T04:28:05.187Z,1020.82
2018-07-09T04:29:05.175Z,1020.83
2018-07-09T04:30:05.159Z,1020.85
2018-07-09T04:31:05.159Z,1020.88
2018-07-09T04:32:05.126Z,1020.83
2018-07-09T04:33:05.122Z,1020.86
2018-07-09T04:34:05.160Z,1020.87
2018-07-09T04:35:05.102Z,1020.88
2018-07-09T04:36:05.104Z,1020.87
2018-07-09T04:37:05.060Z,1020.89
2018-07-09T04:38:05.046Z,1020.88
2018-07-09T04:39:05.031Z,1020.91
2018-07-09T04:40:05.020Z,1020.82
2018-07-09T04:41:05.012Z,1020.87
2018-07-09T04:42:05.009Z,1020.87
2018-07-09T04:43:04.984Z,1020.87
2018-07-09T04:44:04.962Z,1020.85
2018-07-09T04:45:04.946Z,1020.86
2018-07-09T04:46:04.949Z,1020.84
2018-07-09T04:47:04.953Z,1020.86
2018-07-09T04:48:04.909Z,1020.85
2018-07-09T04:49:04.901Z,1020.84
2018-07-09T04:50:04.877Z,1020.83
2018-07-09T04:51:04.869Z,1020.86
2018-07-09T04:52:04.853Z,1020.85
2018-07-09T04:53:04.870Z,1020.83
2018-07-09T04:54:04.832Z,1020.84
2018-07-09T04:55:04.816Z,1020.90
2018-07-09T04:56:04.800Z,1020.84
2018-07-09T04:57:04.789Z,1020.88
2018-07-09T04:58:04.852Z,1020.88
2018-07-09T04:59:04.772Z,1020.93
2018-07-09T05:00:04.805Z,1020.95
2018-07-09T05:01:04.759Z,1020.95
2018-07-09T05:02:04.737Z,1020.95
2018-07-09T05:03:04.725Z,1020.96
2018-07-09T05:04:04.754Z,1020.97
2018-07-09T05:05:04.703Z,1020.99
2018-07-09T05:06:04.700Z,1020.98
2018-07-09T05:07:04.669Z,1021.02
2018-07-09T05:08:04.652Z,1021.02
2018-07-09T05:09:04.643Z,1021.08
2018-07-09T05:10:25.690Z,1021.09
2018-07-09T05:11:04.613Z,1021.09
2018-07-09T05:12:04.603Z,1021.08
2018-07-09T05:13:04.617Z,1021.07
2018-07-09T05:14:04.578Z,1021.11
2018-07-09T05:15:04.565Z,1021.09
2018-07-09T05:16:04.572Z,1021.10
2018-07-09T05:17:04.543Z,1021.14
2018-07-09T05:18:04.532Z,1021.14
2018-07-09T05:19:04.516Z,1021.14
2018-07-09T05:20:25.522Z,1021.13
2018-07-09T05:21:04.495Z,1021.12
2018-07-09T05:22:04.493Z,1021.11
2018-07-09T05:23:04.468Z,1021.13
2018-07-09T05:24:04.462Z,1021.12
2018-07-09T05:25:04.476Z,1021.11
2018-07-09T05:26:04.434Z,1021.11
2018-07-09T05:27:04.421Z,1021.10
2018-07-09T05:28:04.411Z,1021.05
2018-07-09T05:29:04.396Z,1021.03
2018-07-09T05:30:04.387Z,1020.99
2018-07-09T05:31:04.387Z,1020.97
2018-07-09T05:32:04.373Z,1020.96
2018-07-09T05:33:04.349Z,1020.95
2018-07-09T05:34:04.335Z,1020.98
2018-07-09T05:35:04.327Z,1020.95
2018-07-09T05:36:04.331Z,1020.94
2018-07-09T05:37:04.317Z,1020.94
2018-07-09T05:38:04.288Z,1020.93
2018-07-09T05:39:04.278Z,1020.93
2018-07-09T05:40:04.298Z,1020.90
2018-07-09T05:41:04.258Z,1020.94
2018-07-09T05:42:04.257Z,1020.94
2018-07-09T05:43:04.226Z,1020.95
2018-07-09T05:44:04.216Z,1020.93
2018-07-09T05:45:04.198Z,1020.95
2018-07-09T05:46:04.207Z,1020.96
2018-07-09T05:47:04.238Z,1020.95
2018-07-09T05:48:04.185Z,1020.99
2018-07-09T05:49:04.153Z,1020.96
2018-07-09T05:50:04.146Z,1020.98
2018-07-09T05:51:04.134Z,1020.97
2018-07-09T05:52:04.122Z,1020.93
2018-07-09T05:53:04.117Z,1020.98
2018-07-09T05:54:04.109Z,1020.97
2018-07-09T05:55:04.081Z,1020.98
2018-07-09T05:56:04.068Z,1020.98
2018-07-09T05:57:04.058Z,1020.98
2018-07-09T05:58:04.086Z,1020.97
2018-07-09T05:59:04.038Z,1021.00
2018-07-09T06:00:04.023Z,1020.95
2018-07-09T06:01:04.010Z,1020.95
2018-07-09T06:02:03.998Z,1020.99
2018-07-09T06:03:03.987Z,1020.96
2018-07-09T06:04:03.996Z,1020.97
2018-07-09T06:05:03.957Z,1020.94
2018-07-09T06:06:03.940Z,1020.92
2018-07-09T06:07:03.937Z,1020.88
2018-07-09T06:08:03.921Z,1020.92
2018-07-09T06:09:03.927Z,1020.94
2018-07-09T06:10:03.898Z,1020.93
2018-07-09T06:11:03.921Z,1020.90
2018-07-09T06:12:03.873Z,1020.85
2018-07-09T06:13:03.862Z,1020.87
2018-07-09T06:14:03.849Z,1020.83
2018-07-09T06:15:03.849Z,1020.81
2018-07-09T06:16:03.829Z,1020.81
2018-07-09T06:17:03.809Z,1020.82
2018-07-09T06:18:03.804Z,1020.83
2018-07-09T06:19:03.785Z,1020.81
2018-07-09T06:20:24.788Z,1020.84
2018-07-09T06:21:03.761Z,1020.80
2018-07-09T06:22:03.752Z,1020.78
2018-07-09T06:23:03.743Z,1020.76
2018-07-09T06:24:03.723Z,1020.74
2018-07-09T06:25:03.741Z,1020.78
2018-07-09T06:26:03.707Z,1020.78
2018-07-09T06:27:03.685Z,1020.78
2018-07-09T06:28:03.676Z,1020.80
2018-07-09T06:29:03.666Z,1020.77
2018-07-09T06:30:03.654Z,1020.75
2018-07-09T06:31:03.658Z,1020.77
2018-07-09T06:32:03.740Z,1020.78
2018-07-09T06:33:03.617Z,1020.80
2018-07-09T06:34:03.608Z,1020.77
2018-07-09T06:35:03.607Z,1020.82
2018-07-09T06:36:03.582Z,1020.80
2018-07-09T06:37:03.586Z,1020.80
2018-07-09T06:38:03.576Z,1020.78
2018-07-09T06:39:03.546Z,1020.77
2018-07-09T06:40:03.538Z,1020.78
2018-07-09T06:41:03.522Z,1020.75
2018-07-09T06:42:03.511Z,1020.74
2018-07-09T06:43:03.516Z,1020.73
2018-07-09T06:44:03.488Z,1020.77
2018-07-09T06:45:03.479Z,1020.79
2018-07-09T06:46:03.463Z,1020.81
2018-07-09T06:47:03.464Z,1020.84
2018-07-09T06:48:03.441Z,1020.82
2018-07-09T06:49:03.429Z,1020.83
2018-07-09T06:50:03.470Z,1020.84
2018-07-09T06:51:03.402Z,1020.85
2018-07-09T06:52:03.394Z,1020.89
2018-07-09T06:53:03.388Z,1020.86
2018-07-09T06:54:03.371Z,1020.91
2018-07-09T06:55:03.390Z,1020.92
2018-07-09T06:56:03.397Z,1020.95
2018-07-09T06:57:03.334Z,1020.97
2018-07-09T06:58:03.322Z,1021.00
2018-07-09T06:59:03.313Z,1020.98
2018-07-09T07:00:03.300Z,1020.95
2018-07-09T07:01:03.304Z,1020.95
2018-07-09T07:02:03.278Z,1020.97
2018-07-09T07:03:03.263Z,1020.94
2018-07-09T07:04:03.253Z,1020.92
2018-07-09T07:05:03.252Z,1020.95
2018-07-09T07:06:03.231Z,1020.94
2018-07-09T07:07:03.234Z,1020.88
2018-07-09T07:08:03.208Z,1020.92
2018-07-09T07:09:03.214Z,1020.96
2018-07-09T07:10:03.208Z,1020.94
2018-07-09T07:11:03.169Z,1020.99
2018-07-09T07:12:03.160Z,1021.00
2018-07-09T07:13:03.166Z,1020.98
2018-07-09T07:14:03.132Z,1020.99
2018-07-09T07:15:03.125Z,1020.96
2018-07-09T07:16:03.131Z,1020.99
2018-07-09T07:17:03.099Z,1020.98
2018-07-09T07:18:03.096Z,1020.97
2018-07-09T07:19:03.080Z,1021.03
2018-07-09T07:20:03.070Z,1021.04
2018-07-09T07:21:03.108Z,1021.03
2018-07-09T07:22:03.048Z,1021.02
2018-07-09T07:23:03.029Z,1021.04
2018-07-09T07:24:03.040Z,1021.00
2018-07-09T07:25:03.019Z,1021.02
2018-07-09T07:26:03.013Z,1021.03
2018-07-09T07:27:02.992Z,1021.05
2018-07-09T07:28:02.972Z,1021.04
2018-07-09T07:29:02.965Z,1021.00
2018-07-09T07:30:02.973Z,1021.04
2018-07-09T07:31:02.962Z,1021.09
2018-07-09T07:32:02.933Z,1021.02
2018-07-09T07:33:02.966Z,1021.05
2018-07-09T07:34:02.908Z,1021.03
2018-07-09T07:35:02.894Z,1020.97
2018-07-09T07:36:02.899Z,1020.97
2018-07-09T07:37:02.891Z,1020.96
2018-07-09T07:38:02.892Z,1020.94
2018-07-09T07:39:02.855Z,1020.98
2018-07-09T07:40:02.843Z,1020.95
2018-07-09T07:41:02.835Z,1020.98
2018-07-09T07:42:02.846Z,1021.00
2018-07-09T07:43:02.820Z,1021.00
2018-07-09T07:44:02.800Z,1021.00
2018-07-09T07:45:02.792Z,1021.05
2018-07-09T07:46:02.780Z,1021.04
2018-07-09T07:47:02.770Z,1021.02
2018-07-09T07:48:02.776Z,1021.01
2018-07-09T07:49:02.747Z,1020.95
2018-07-09T07:50:02.736Z,1020.94
2018-07-09T07:51:02.728Z,1020.95
2018-07-09T07:52:02.716Z,1020.97
2018-07-09T07:53:02.716Z,1020.89
2018-07-09T07:54:02.696Z,1020.88
2018-07-09T07:55:02.679Z,1020.91
2018-07-09T07:56:02.674Z,1020.92
2018-07-09T07:57:02.662Z,1020.92
2018-07-09T07:58:23.662Z,1020.87
2018-07-09T07:59:02.646Z,1020.92
2018-07-09T08:00:02.625Z,1020.82
2018-07-09T08:01:02.620Z,1020.88
2018-07-09T08:02:02.603Z,1020.84
2018-07-09T08:03:02.637Z,1020.86
2018-07-09T08:04:02.604Z,1020.87
2018-07-09T08:05:02.578Z,1020.93
2018-07-09T08:06:02.573Z,1020.92
2018-07-09T08:07:02.559Z,1020.94
2018-07-09T08:08:02.562Z,1020.92
2018-07-09T08:09:02.550Z,1020.90
2018-07-09T08:10:02.529Z,1020.88
2018-07-09T08:11:10.911Z,1020.86
2018-07-09T08:12:59.659Z,1020.84
2018-07-09T08:13:27.173Z,1020.83
2018-07-09T08:14:02.501Z,1020.83
2018-07-09T08:15:02.473Z,1020.81
2018-07-09T08:16:02.491Z,1020.82
2018-07-09T08:17:02.451Z,1020.84
2018-07-09T08:18:02.444Z,1020.80
2018-07-09T08:19:02.432Z,1020.83
2018-07-09T08:20:02.425Z,1020.80
2018-07-09T08:21:02.420Z,1020.79
2018-07-09T08:22:02.416Z,1020.84
2018-07-09T08:23:02.393Z,1020.79
2018-07-09T08:24:02.388Z,1020.81
2018-07-09T08:25:02.459Z,1020.79
2018-07-09T08:26:02.364Z,1020.78
2018-07-09T08:27:02.371Z,1020.79
2018-07-09T08:28:02.357Z,1020.80
2018-07-09T08:29:02.331Z,1020.85
2018-07-09T08:30:02.323Z,1020.85
2018-07-09T08:31:02.314Z,1020.84
2018-07-09T08:32:02.300Z,1020.84
2018-07-09T08:33:02.307Z,1020.89
2018-07-09T08:34:02.276Z,1020.88
2018-07-09T08:35:02.270Z,1020.80
2018-07-09T08:36:02.268Z,1020.84
2018-07-09T08:37:02.267Z,1020.87
2018-07-09T08:38:02.284Z,1020.76
2018-07-09T08:39:02.231Z,1020.81
2018-07-09T08:40:02.218Z,1020.73
2018-07-09T08:41:02.220Z,1020.74
2018-07-09T08:42:02.205Z,1020.69
2018-07-09T08:43:02.224Z,1020.72
2018-07-09T08:44:02.177Z,1020.69
2018-07-09T08:45:02.174Z,1020.72
2018-07-09T08:46:02.164Z,1020.70
2018-07-09T08:47:02.149Z,1020.72
2018-07-09T08:48:02.134Z,1020.71
2018-07-09T08:49:02.146Z,1020.69
2018-07-09T08:50:02.118Z,1020.71
2018-07-09T08:51:02.108Z,1020.71
2018-07-09T08:52:02.107Z,1020.74
2018-07-09T08:53:02.083Z,1020.78
2018-07-09T08:54:02.078Z,1021.86
2018-07-09T08:55:02.083Z,1021.78
2018-07-09T08:56:02.052Z,1021.26
2018-07-09T08:57:02.050Z,1021.11
2018-07-09T08:58:02.032Z,1021.00
2018-07-09T08:59:02.041Z,1020.73
2018-07-09T09:00:02.017Z,1020.73
2018-07-09T09:01:02.006Z,1020.86
2018-07-09T09:02:01.994Z,1021.16
2018-07-09T09:03:01.982Z,1020.82
2018-07-09T09:04:02.000Z,1020.88
2018-07-09T09:05:01.980Z,1021.28
2018-07-09T09:06:01.955Z,1020.67
2018-07-09T09:07:01.940Z,1020.74
2018-07-09T09:08:01.935Z,1020.86
2018-07-09T09:09:01.927Z,1020.87
2018-07-09T09:10:01.952Z,1020.94
2018-07-09T09:11:01.917Z,1021.25
2018-07-09T09:12:01.898Z,1021.84
2018-07-09T09:13:01.888Z,1022.02
2018-07-09T09:14:01.882Z,1021.88
2018-07-09T09:15:01.866Z,1021.80
2018-07-09T09:16:01.877Z,1021.72
2018-07-09T09:17:22.865Z,1021.56
2018-07-09T09:18:01.845Z,1021.54
2018-07-09T09:19:01.823Z,1021.02
2018-07-09T09:20:01.817Z,1021.02
2018-07-09T09:21:01.810Z,1021.06
2018-07-09T09:22:01.827Z,1020.85
2018-07-09T09:23:01.794Z,1020.65
2018-07-09T09:24:01.788Z,1020.63
2018-07-09T09:25:01.776Z,1020.58
2018-07-09T09:26:01.765Z,1020.58
2018-07-09T09:27:01.767Z,1020.58
2018-07-09T09:28:01.768Z,1020.55
2018-07-09T09:29:01.757Z,1020.60
2018-07-09T09:30:01.745Z,1020.61
2018-07-09T09:31:01.725Z,1020.55
2018-07-09T09:32:01.722Z,1020.57
2018-07-09T09:33:01.732Z,1020.51
2018-07-09T09:34:01.709Z,1020.51
2018-07-09T09:35:01.706Z,1020.55
2018-07-09T09:36:01.693Z,1020.55
2018-07-09T09:37:01.687Z,1020.57
2018-07-09T09:38:01.703Z,1020.57
2018-07-09T09:39:01.676Z,1020.61
2018-07-09T09:40:01.671Z,1020.59
2018-07-09T09:41:01.659Z,1020.66
2018-07-09T09:42:01.654Z,1020.66
2018-07-09T09:43:01.676Z,1020.73
2018-07-09T09:44:01.651Z,1020.62
2018-07-09T09:45:01.630Z,1020.65
2018-07-09T09:46:01.626Z,1020.70
2018-07-09T09:47:01.618Z,1020.74
2018-07-09T09:48:01.610Z,1020.75
2018-07-09T09:49:01.633Z,1020.79
2018-07-09T09:50:01.594Z,1020.78
2018-07-09T09:51:01.593Z,1020.86
2018-07-09T09:52:01.584Z,1020.90
2018-07-09T09:53:01.583Z,1020.96
2018-07-09T09:54:01.576Z,1020.95
2018-07-09T09:55:01.639Z,1020.94
2018-07-09T09:56:01.558Z,1020.85
2018-07-09T09:57:01.558Z,1020.82
2018-07-09T09:58:01.555Z,1020.81
2018-07-09T09:59:01.545Z,1020.77
2018-07-09T10:00:01.557Z,1020.82
2018-07-09T10:01:01.562Z,1020.75
2018-07-09T10:02:01.532Z,1020.81
2018-07-09T10:03:01.536Z,1020.80
2018-07-09T10:04:01.527Z,1020.79
2018-07-09T10:05:01.539Z,1020.75
2018-07-09T10:06:01.517Z,1020.77
2018-07-09T10:07:01.517Z,1020.81
2018-07-09T10:08:01.516Z,1020.85
2018-07-09T10:09:01.514Z,1020.84
2018-07-09T10:10:01.531Z,1020.86
2018-07-09T10:11:01.506Z,1020.83
2018-07-09T10:12:01.512Z,1020.86
2018-07-09T10:13:01.506Z,1020.87
2018-07-09T10:14:01.503Z,1020.80
2018-07-09T10:15:01.518Z,1020.76
2018-07-09T10:16:01.500Z,1020.75
2018-07-09T10:17:01.502Z,1020.73
2018-07-09T10:18:01.501Z,1020.72
2018-07-09T10:19:01.498Z,1020.70
2018-07-09T10:20:01.517Z,1020.66
2018-07-09T10:21:01.497Z,1020.65
2018-07-09T10:22:01.717Z,1020.68
2018-07-09T10:23:01.569Z,1020.70
2018-07-09T10:24:01.497Z,1020.71
2018-07-09T10:25:01.499Z,1020.72
2018-07-09T10:26:01.512Z,1020.71
2018-07-09T10:27:01.498Z,1020.66
2018-07-09T10:28:01.513Z,1020.67
2018-07-09T10:29:01.504Z,1020.68
2018-07-09T10:30:01.493Z,1020.71
2018-07-09T10:31:01.500Z,1020.68
2018-07-09T10:32:01.500Z,1020.68
2018-07-09T10:33:01.518Z,1020.65
2018-07-09T10:34:01.501Z,1020.64
2018-07-09T10:35:01.499Z,1020.62
2018-07-09T10:36:01.530Z,1020.60
2018-07-09T10:37:01.501Z,1020.50
2018-07-09T10:38:01.500Z,1020.56
2018-07-09T10:39:01.497Z,1020.47
2018-07-09T10:40:01.497Z,1020.48
2018-07-09T10:41:01.504Z,1020.51
2018-07-09T10:42:01.516Z,1020.52
2018-07-09T10:43:01.500Z,1020.52
2018-07-09T10:44:01.518Z,1020.45
2018-07-09T10:45:01.505Z,1020.40
2018-07-09T10:46:01.504Z,1020.37
2018-07-09T10:47:01.522Z,1020.33
2018-07-09T10:48:01.524Z,1020.30
2018-07-09T10:49:01.510Z,1020.33
2018-07-09T10:50:01.526Z,1020.28
2018-07-09T10:51:01.515Z,1020.21
2018-07-09T10:52:01.507Z,1020.24
2018-07-09T10:53:01.509Z,1020.21
2018-07-09T10:54:01.511Z,1020.17
2018-07-09T10:55:01.540Z,1020.18
2018-07-09T10:56:01.505Z,1020.23
2018-07-09T10:57:01.507Z,1020.27
2018-07-09T10:58:01.512Z,1020.17
2018-07-09T10:59:01.514Z,1020.10
2018-07-09T11:00:01.527Z,1020.06
2018-07-09T11:01:01.512Z,1020.04
2018-07-09T11:02:01.508Z,1020.05
2018-07-09T11:03:01.508Z,1020.13
2018-07-09T11:04:01.508Z,1020.16
2018-07-09T11:05:01.528Z,1020.11
2018-07-09T11:06:01.507Z,1020.06
2018-07-09T11:07:01.505Z,1020.04
2018-07-09T11:08:01.503Z,1020.06
2018-07-09T11:09:01.503Z,1020.12
2018-07-09T11:10:01.516Z,1020.09
2018-07-09T11:11:01.497Z,1020.02
2018-07-09T11:12:01.493Z,1020.02
2018-07-09T11:13:01.486Z,1020.00
2018-07-09T11:14:01.490Z,1019.99
2018-07-09T11:15:01.524Z,1020.00
2018-07-09T11:16:01.481Z,1020.02
2018-07-09T11:17:01.473Z,1020.06
2018-07-09T11:18:01.493Z,1019.99
2018-07-09T11:19:01.465Z,1019.98
2018-07-09T11:20:01.462Z,1019.99
2018-07-09T11:21:01.458Z,1020.02
2018-07-09T11:22:01.457Z,1020.03
2018-07-09T11:23:01.446Z,1020.02
2018-07-09T11:24:01.458Z,1020.01
2018-07-09T11:25:01.446Z,1020.01
2018-07-09T11:26:01.427Z,1020.18
2018-07-09T11:27:01.416Z,1020.05
2018-07-09T11:28:01.430Z,1020.03
2018-07-09T11:29:01.413Z,1020.15
2018-07-09T11:30:01.402Z,1019.94
2018-07-09T11:31:01.398Z,1019.96
2018-07-09T11:32:01.403Z,1019.94
2018-07-09T11:33:01.382Z,1019.88
2018-07-09T11:34:01.379Z,1019.91
2018-07-09T11:35:01.396Z,1019.89
2018-07-09T11:36:01.424Z,1019.88
2018-07-09T11:37:01.363Z,1019.82
2018-07-09T11:38:01.352Z,1019.90
2018-07-09T11:39:01.352Z,1019.89
2018-07-09T11:40:01.374Z,1020.06
2018-07-09T11:41:01.358Z,1020.06
2018-07-09T11:42:01.341Z,1019.94
2018-07-09T11:43:01.328Z,1020.17
2018-07-09T11:44:01.319Z,1020.08
2018-07-09T11:45:01.339Z,1020.07
2018-07-09T11:46:01.310Z,1020.12
2018-07-09T11:47:01.313Z,1020.18
2018-07-09T11:48:01.312Z,1020.15
2018-07-09T11:49:01.295Z,1020.13
2018-07-09T11:50:01.302Z,1020.14
2018-07-09T11:51:01.307Z,1020.18
2018-07-09T11:52:01.327Z,1020.17
2018-07-09T11:53:01.290Z,1020.20
2018-07-09T11:54:01.283Z,1020.11
2018-07-09T11:55:01.280Z,1019.86
2018-07-09T11:56:01.291Z,1019.85
2018-07-09T11:57:01.278Z,1019.83
2018-07-09T11:58:01.269Z,1019.78
2018-07-09T11:59:01.311Z,1019.82
2018-07-09T12:00:01.267Z,1019.95
2018-07-09T12:01:01.284Z,1019.98
2018-07-09T12:02:01.340Z,1019.93
2018-07-09T12:03:01.288Z,1019.78
2018-07-09T12:04:01.267Z,1019.79
2018-07-09T12:05:01.258Z,1019.74